sensor_id;sensor_type;location;lat;lon;timestamp;P1;durP1;ratioP1;P2;durP2;ratioP2
25249;SDS011;13201;51.148;13.738;2023-06-24T00:00:59;9.20;;;5.90;;
25249;SDS011;13201;51.148;13.738;2023-06-24T00:03:25;13.02;;;7.05;;
25249;SDS011;13201;51.148;13.738;2023-06-24T00:05:51;11.65;;;6.85;;
25249;SDS011;13201;51.148;13.738;2023-06-24T00:08:18;9.52;;;6.28;;
25249;SDS011;13201;51.148;13.738;2023-06-24T00:10:46;9.88;;;6.45;;
25249;SDS011;13201;51.148;13.738;2023-06-24T00:13:12;13.30;;;7.43;;
25249;SDS011;13201;51.148;13.738;2023-06-24T00:15:39;9.80;;;6.35;;
25249;SDS011;13201;51.148;13.738;2023-06-24T00:18:11;13.13;;;7.18;;
25249;SDS011;13201;51.148;13.738;2023-06-24T00:20:37;10.25;;;6.47;;
25249;SDS011;13201;51.148;13.738;2023-06-24T00:23:03;15.70;;;7.07;;
25249;SDS011;13201;51.148;13.738;2023-06-24T00:25:29;12.52;;;6.82;;
25249;SDS011;13201;51.148;13.738;2023-06-24T00:27:55;13.60;;;6.95;;
25249;SDS011;13201;51.148;13.738;2023-06-24T00:30:21;15.23;;;7.65;;
25249;SDS011;13201;51.148;13.738;2023-06-24T00:35:13;10.47;;;6.70;;
25249;SDS011;13201;51.148;13.738;2023-06-24T00:37:40;11.82;;;7.10;;
25249;SDS011;13201;51.148;13.738;2023-06-24T00:40:10;14.05;;;7.20;;
25249;SDS011;13201;51.148;13.738;2023-06-24T00:42:36;12.93;;;7.60;;
25249;SDS011;13201;51.148;13.738;2023-06-24T00:45:03;13.83;;;7.10;;
25249;SDS011;13201;51.148;13.738;2023-06-24T00:47:30;11.27;;;7.80;;
25249;SDS011;13201;51.148;13.738;2023-06-24T00:49:56;12.65;;;7.68;;
25249;SDS011;13201;51.148;13.738;2023-06-24T00:52:22;15.88;;;7.95;;
25249;SDS011;13201;51.148;13.738;2023-06-24T00:54:48;15.30;;;8.10;;
25249;SDS011;13201;51.148;13.738;2023-06-24T00:57:14;15.20;;;8.30;;
25249;SDS011;13201;51.148;13.738;2023-06-24T00:59:42;12.20;;;7.75;;
25249;SDS011;13201;51.148;13.738;2023-06-24T01:02:10;15.93;;;8.10;;
25249;SDS011;13201;51.148;13.738;2023-06-24T01:30:17;18.52;;;11.60;;
25249;SDS011;13201;51.148;13.738;2023-06-24T01:33:07;23.88;;;12.43;;
25249;SDS011;13201;51.148;13.738;2023-06-24T01:35:38;20.38;;;12.20;;
25249;SDS011;13201;51.148;13.738;2023-06-24T01:38:08;22.73;;;11.85;;
25249;SDS011;13201;51.148;13.738;2023-06-24T01:40:43;19.48;;;12.07;;
25249;SDS011;13201;51.148;13.738;2023-06-24T01:43:10;22.25;;;12.38;;
25249;SDS011;13201;51.148;13.738;2023-06-24T01:45:48;22.38;;;12.05;;
25249;SDS011;13201;51.148;13.738;2023-06-24T01:48:18;21.20;;;11.70;;
25249;SDS011;13201;51.148;13.738;2023-06-24T01:50:50;19.50;;;11.95;;
25249;SDS011;13201;51.148;13.738;2023-06-24T01:53:19;19.38;;;12.02;;
25249;SDS011;13201;51.148;13.738;2023-06-24T01:55:47;21.80;;;11.57;;
25249;SDS011;13201;51.148;13.738;2023-06-24T01:58:14;22.00;;;12.63;;
25249;SDS011;13201;51.148;13.738;2023-06-24T02:00:43;25.73;;;11.73;;
25249;SDS011;13201;51.148;13.738;2023-06-24T02:03:09;21.00;;;11.23;;
25249;SDS011;13201;51.148;13.738;2023-06-24T02:05:36;24.15;;;11.95;;
25249;SDS011;13201;51.148;13.738;2023-06-24T02:08:05;20.10;;;12.30;;
25249;SDS011;13201;51.148;13.738;2023-06-24T02:10:38;21.58;;;11.95;;
25249;SDS011;13201;51.148;13.738;2023-06-24T02:13:05;28.33;;;11.75;;
25249;SDS011;13201;51.148;13.738;2023-06-24T02:15:34;21.42;;;12.32;;
25249;SDS011;13201;51.148;13.738;2023-06-24T02:18:01;17.55;;;11.68;;
25249;SDS011;13201;51.148;13.738;2023-06-24T02:20:29;21.05;;;11.77;;
25249;SDS011;13201;51.148;13.738;2023-06-24T02:25:24;24.65;;;11.90;;
25249;SDS011;13201;51.148;13.738;2023-06-24T02:27:52;24.10;;;12.27;;
25249;SDS011;13201;51.148;13.738;2023-06-24T02:30:20;25.55;;;12.43;;
25249;SDS011;13201;51.148;13.738;2023-06-24T02:32:47;19.65;;;11.90;;
25249;SDS011;13201;51.148;13.738;2023-06-24T02:35:12;26.55;;;12.23;;
25249;SDS011;13201;51.148;13.738;2023-06-24T02:37:38;24.42;;;12.55;;
25249;SDS011;13201;51.148;13.738;2023-06-24T02:40:05;23.80;;;12.95;;
25249;SDS011;13201;51.148;13.738;2023-06-24T02:42:33;20.88;;;12.43;;
25249;SDS011;13201;51.148;13.738;2023-06-24T02:44:59;20.00;;;12.45;;
25249;SDS011;13201;51.148;13.738;2023-06-24T02:49:51;24.80;;;13.73;;
25249;SDS011;13201;51.148;13.738;2023-06-24T02:52:19;21.13;;;12.38;;
25249;SDS011;13201;51.148;13.738;2023-06-24T02:54:45;19.23;;;12.60;;
25249;SDS011;13201;51.148;13.738;2023-06-24T02:57:11;21.90;;;12.70;;
25249;SDS011;13201;51.148;13.738;2023-06-24T02:59:39;20.90;;;12.52;;
25249;SDS011;13201;51.148;13.738;2023-06-24T03:02:05;21.33;;;12.95;;
25249;SDS011;13201;51.148;13.738;2023-06-24T03:04:31;23.95;;;13.63;;
25249;SDS011;13201;51.148;13.738;2023-06-24T03:06:57;25.67;;;14.00;;
25249;SDS011;13201;51.148;13.738;2023-06-24T03:09:24;22.27;;;12.55;;
25249;SDS011;13201;51.148;13.738;2023-06-24T03:11:51;19.80;;;12.55;;
25249;SDS011;13201;51.148;13.738;2023-06-24T03:14:18;22.65;;;12.25;;
25249;SDS011;13201;51.148;13.738;2023-06-24T03:16:44;21.60;;;13.55;;
25249;SDS011;13201;51.148;13.738;2023-06-24T03:19:10;20.52;;;12.20;;
25249;SDS011;13201;51.148;13.738;2023-06-24T03:21:36;19.17;;;11.77;;
25249;SDS011;13201;51.148;13.738;2023-06-24T03:24:01;21.48;;;11.75;;
25249;SDS011;13201;51.148;13.738;2023-06-24T03:26:31;20.42;;;11.10;;
25249;SDS011;13201;51.148;13.738;2023-06-24T03:28:58;17.83;;;11.57;;
25249;SDS011;13201;51.148;13.738;2023-06-24T03:31:24;22.08;;;11.50;;
25249;SDS011;13201;51.148;13.738;2023-06-24T03:33:49;19.83;;;11.50;;
25249;SDS011;13201;51.148;13.738;2023-06-24T03:36:15;22.92;;;11.52;;
25249;SDS011;13201;51.148;13.738;2023-06-24T03:38:41;18.42;;;11.23;;
25249;SDS011;13201;51.148;13.738;2023-06-24T03:41:06;20.55;;;10.88;;
25249;SDS011;13201;51.148;13.738;2023-06-24T03:43:32;17.05;;;11.38;;
25249;SDS011;13201;51.148;13.738;2023-06-24T03:45:58;20.77;;;11.07;;
25249;SDS011;13201;51.148;13.738;2023-06-24T03:50:50;20.23;;;11.27;;
25249;SDS011;13201;51.148;13.738;2023-06-24T03:53:16;18.83;;;10.77;;
25249;SDS011;13201;51.148;13.738;2023-06-24T03:55:42;21.30;;;10.73;;
25249;SDS011;13201;51.148;13.738;2023-06-24T03:58:07;17.02;;;11.70;;
25249;SDS011;13201;51.148;13.738;2023-06-24T04:00:33;20.52;;;11.23;;
25249;SDS011;13201;51.148;13.738;2023-06-24T04:03:01;21.88;;;11.05;;
25249;SDS011;13201;51.148;13.738;2023-06-24T04:05:27;17.88;;;11.07;;
25249;SDS011;13201;51.148;13.738;2023-06-24T04:07:54;17.65;;;10.82;;
25249;SDS011;13201;51.148;13.738;2023-06-24T04:10:19;21.88;;;11.40;;
25249;SDS011;13201;51.148;13.738;2023-06-24T04:12:45;25.40;;;10.52;;
25249;SDS011;13201;51.148;13.738;2023-06-24T04:15:11;17.23;;;10.85;;
25249;SDS011;13201;51.148;13.738;2023-06-24T04:17:37;19.17;;;11.63;;
25249;SDS011;13201;51.148;13.738;2023-06-24T04:20:02;20.27;;;10.55;;
25249;SDS011;13201;51.148;13.738;2023-06-24T04:22:37;20.75;;;10.07;;
25249;SDS011;13201;51.148;13.738;2023-06-24T04:25:04;21.13;;;10.90;;
25249;SDS011;13201;51.148;13.738;2023-06-24T04:27:31;20.75;;;10.63;;
25249;SDS011;13201;51.148;13.738;2023-06-24T04:29:58;18.75;;;10.43;;
25249;SDS011;13201;51.148;13.738;2023-06-24T04:32:24;17.10;;;10.60;;
25249;SDS011;13201;51.148;13.738;2023-06-24T04:34:50;19.02;;;10.18;;
25249;SDS011;13201;51.148;13.738;2023-06-24T04:37:15;16.67;;;9.65;;
25249;SDS011;13201;51.148;13.738;2023-06-24T04:39:42;18.27;;;10.27;;
25249;SDS011;13201;51.148;13.738;2023-06-24T04:42:08;18.35;;;10.00;;
25249;SDS011;13201;51.148;13.738;2023-06-24T04:44:35;15.98;;;9.95;;
25249;SDS011;13201;51.148;13.738;2023-06-24T04:47:01;15.27;;;8.98;;
25249;SDS011;13201;51.148;13.738;2023-06-24T04:49:27;19.98;;;9.50;;
25249;SDS011;13201;51.148;13.738;2023-06-24T04:51:52;19.20;;;9.40;;
25249;SDS011;13201;51.148;13.738;2023-06-24T04:54:18;20.33;;;10.73;;
25249;SDS011;13201;51.148;13.738;2023-06-24T04:56:44;17.50;;;9.95;;
25249;SDS011;13201;51.148;13.738;2023-06-24T04:59:10;17.43;;;10.40;;
25249;SDS011;13201;51.148;13.738;2023-06-24T05:01:36;20.35;;;10.43;;
25249;SDS011;13201;51.148;13.738;2023-06-24T05:04:02;18.75;;;9.77;;
25249;SDS011;13201;51.148;13.738;2023-06-24T05:06:28;16.00;;;10.48;;
25249;SDS011;13201;51.148;13.738;2023-06-24T05:08:53;22.85;;;11.00;;
25249;SDS011;13201;51.148;13.738;2023-06-24T05:11:19;17.45;;;11.07;;
25249;SDS011;13201;51.148;13.738;2023-06-24T05:13:45;19.10;;;10.77;;
25249;SDS011;13201;51.148;13.738;2023-06-24T05:16:10;20.27;;;11.52;;
25249;SDS011;13201;51.148;13.738;2023-06-24T05:18:36;17.90;;;12.57;;
25249;SDS011;13201;51.148;13.738;2023-06-24T05:21:02;21.50;;;11.93;;
25249;SDS011;13201;51.148;13.738;2023-06-24T05:23:27;22.95;;;12.18;;
25249;SDS011;13201;51.148;13.738;2023-06-24T05:25:53;18.83;;;12.88;;
25249;SDS011;13201;51.148;13.738;2023-06-24T05:28:19;21.38;;;12.60;;
25249;SDS011;13201;51.148;13.738;2023-06-24T05:30:44;24.42;;;13.18;;
25249;SDS011;13201;51.148;13.738;2023-06-24T05:33:11;25.67;;;12.73;;
25249;SDS011;13201;51.148;13.738;2023-06-24T05:35:36;29.45;;;14.10;;
25249;SDS011;13201;51.148;13.738;2023-06-24T05:38:05;27.15;;;14.55;;
25249;SDS011;13201;51.148;13.738;2023-06-24T05:40:31;26.95;;;15.45;;
25249;SDS011;13201;51.148;13.738;2023-06-24T05:42:57;26.15;;;14.98;;
25249;SDS011;13201;51.148;13.738;2023-06-24T05:45:22;26.70;;;14.65;;
25249;SDS011;13201;51.148;13.738;2023-06-24T05:47:48;23.48;;;14.10;;
25249;SDS011;13201;51.148;13.738;2023-06-24T05:50:14;30.25;;;15.15;;
25249;SDS011;13201;51.148;13.738;2023-06-24T05:52:39;25.85;;;14.82;;
25249;SDS011;13201;51.148;13.738;2023-06-24T05:55:05;21.15;;;14.15;;
25249;SDS011;13201;51.148;13.738;2023-06-24T05:57:31;27.08;;;14.23;;
25249;SDS011;13201;51.148;13.738;2023-06-24T05:59:57;25.38;;;14.82;;
25249;SDS011;13201;51.148;13.738;2023-06-24T06:02:22;33.30;;;15.73;;
25249;SDS011;13201;51.148;13.738;2023-06-24T06:04:48;29.20;;;15.63;;
25249;SDS011;13201;51.148;13.738;2023-06-24T06:07:14;30.10;;;15.95;;
25249;SDS011;13201;51.148;13.738;2023-06-24T06:09:40;28.95;;;15.57;;
25249;SDS011;13201;51.148;13.738;2023-06-24T06:12:06;30.58;;;16.60;;
25249;SDS011;13201;51.148;13.738;2023-06-24T06:14:32;30.25;;;16.80;;
25249;SDS011;13201;51.148;13.738;2023-06-24T06:16:58;35.08;;;16.98;;
25249;SDS011;13201;51.148;13.738;2023-06-24T06:19:23;30.30;;;16.30;;
25249;SDS011;13201;51.148;13.738;2023-06-24T06:21:49;36.33;;;16.92;;
25249;SDS011;13201;51.148;13.738;2023-06-24T06:26:42;34.63;;;17.57;;
25249;SDS011;13201;51.148;13.738;2023-06-24T06:29:09;29.42;;;15.95;;
25249;SDS011;13201;51.148;13.738;2023-06-24T06:31:37;29.48;;;15.75;;
25249;SDS011;13201;51.148;13.738;2023-06-24T06:34:03;29.40;;;16.27;;
25249;SDS011;13201;51.148;13.738;2023-06-24T06:36:29;35.58;;;16.67;;
25249;SDS011;13201;51.148;13.738;2023-06-24T06:38:54;28.73;;;16.40;;
25249;SDS011;13201;51.148;13.738;2023-06-24T06:41:20;31.33;;;17.08;;
25249;SDS011;13201;51.148;13.738;2023-06-24T06:43:52;28.17;;;16.83;;
25249;SDS011;13201;51.148;13.738;2023-06-24T06:46:18;28.27;;;15.30;;
25249;SDS011;13201;51.148;13.738;2023-06-24T06:48:44;28.40;;;16.35;;
25249;SDS011;13201;51.148;13.738;2023-06-24T06:51:10;29.00;;;16.33;;
25249;SDS011;13201;51.148;13.738;2023-06-24T06:53:35;27.25;;;15.82;;
25249;SDS011;13201;51.148;13.738;2023-06-24T06:56:01;30.58;;;16.85;;
25249;SDS011;13201;51.148;13.738;2023-06-24T06:58:27;25.63;;;15.25;;
25249;SDS011;13201;51.148;13.738;2023-06-24T07:00:53;27.40;;;15.05;;
25249;SDS011;13201;51.148;13.738;2023-06-24T07:03:18;22.52;;;13.70;;
25249;SDS011;13201;51.148;13.738;2023-06-24T07:05:44;20.75;;;13.90;;
25249;SDS011;13201;51.148;13.738;2023-06-24T07:08:10;19.52;;;12.93;;
25249;SDS011;13201;51.148;13.738;2023-06-24T07:10:35;23.10;;;12.73;;
25249;SDS011;13201;51.148;13.738;2023-06-24T07:13:01;17.30;;;11.93;;
25249;SDS011;13201;51.148;13.738;2023-06-24T07:15:27;21.67;;;14.07;;
25249;SDS011;13201;51.148;13.738;2023-06-24T07:17:52;23.52;;;14.70;;
25249;SDS011;13201;51.148;13.738;2023-06-24T07:20:18;24.50;;;14.60;;
25249;SDS011;13201;51.148;13.738;2023-06-24T07:22:45;23.02;;;15.07;;
25249;SDS011;13201;51.148;13.738;2023-06-24T07:25:11;21.58;;;14.20;;
25249;SDS011;13201;51.148;13.738;2023-06-24T07:27:37;27.27;;;15.13;;
25249;SDS011;13201;51.148;13.738;2023-06-24T07:30:03;25.42;;;14.45;;
25249;SDS011;13201;51.148;13.738;2023-06-24T07:32:30;25.83;;;14.32;;
25249;SDS011;13201;51.148;13.738;2023-06-24T07:34:56;24.98;;;14.45;;
25249;SDS011;13201;51.148;13.738;2023-06-24T07:37:22;24.23;;;14.82;;
25249;SDS011;13201;51.148;13.738;2023-06-24T07:39:48;24.53;;;15.73;;
25249;SDS011;13201;51.148;13.738;2023-06-24T07:42:13;24.15;;;14.80;;
25249;SDS011;13201;51.148;13.738;2023-06-24T07:44:44;24.17;;;15.15;;
25249;SDS011;13201;51.148;13.738;2023-06-24T07:47:10;22.50;;;13.80;;
25249;SDS011;13201;51.148;13.738;2023-06-24T07:49:36;26.05;;;14.73;;
25249;SDS011;13201;51.148;13.738;2023-06-24T07:52:02;24.20;;;13.43;;
25249;SDS011;13201;51.148;13.738;2023-06-24T07:54:29;21.60;;;13.57;;
25249;SDS011;13201;51.148;13.738;2023-06-24T07:56:55;21.48;;;12.77;;
25249;SDS011;13201;51.148;13.738;2023-06-24T07:59:21;18.63;;;12.32;;
25249;SDS011;13201;51.148;13.738;2023-06-24T08:01:46;24.17;;;13.05;;
25249;SDS011;13201;51.148;13.738;2023-06-24T08:04:13;20.40;;;11.55;;
25249;SDS011;13201;51.148;13.738;2023-06-24T08:06:39;16.83;;;12.05;;
25249;SDS011;13201;51.148;13.738;2023-06-24T08:09:05;21.73;;;10.80;;
25249;SDS011;13201;51.148;13.738;2023-06-24T08:11:31;17.33;;;10.70;;
25249;SDS011;13201;51.148;13.738;2023-06-24T08:13:56;21.73;;;10.73;;
25249;SDS011;13201;51.148;13.738;2023-06-24T08:16:22;18.58;;;10.80;;
25249;SDS011;13201;51.148;13.738;2023-06-24T08:18:48;17.38;;;10.05;;
25249;SDS011;13201;51.148;13.738;2023-06-24T08:21:13;13.50;;;9.88;;
25249;SDS011;13201;51.148;13.738;2023-06-24T08:23:39;17.98;;;9.93;;
25249;SDS011;13201;51.148;13.738;2023-06-24T08:26:05;16.98;;;10.23;;
25249;SDS011;13201;51.148;13.738;2023-06-24T08:28:32;15.93;;;10.75;;
25249;SDS011;13201;51.148;13.738;2023-06-24T08:30:58;14.25;;;10.10;;
25249;SDS011;13201;51.148;13.738;2023-06-24T08:33:24;15.05;;;10.00;;
25249;SDS011;13201;51.148;13.738;2023-06-24T08:35:49;19.25;;;10.18;;
25249;SDS011;13201;51.148;13.738;2023-06-24T08:38:15;13.25;;;8.65;;
25249;SDS011;13201;51.148;13.738;2023-06-24T08:40:41;12.82;;;8.30;;
25249;SDS011;13201;51.148;13.738;2023-06-24T08:43:08;14.27;;;8.38;;
25249;SDS011;13201;51.148;13.738;2023-06-24T08:45:34;11.77;;;8.53;;
25249;SDS011;13201;51.148;13.738;2023-06-24T08:48:00;13.95;;;9.00;;
25249;SDS011;13201;51.148;13.738;2023-06-24T08:50:31;14.30;;;8.20;;
25249;SDS011;13201;51.148;13.738;2023-06-24T08:53:01;12.55;;;8.13;;
25249;SDS011;13201;51.148;13.738;2023-06-24T08:55:32;15.00;;;9.00;;
25249;SDS011;13201;51.148;13.738;2023-06-24T08:58:04;14.38;;;8.07;;
25249;SDS011;13201;51.148;13.738;2023-06-24T09:00:30;12.77;;;7.43;;
25249;SDS011;13201;51.148;13.738;2023-06-24T09:02:56;13.88;;;7.47;;
25249;SDS011;13201;51.148;13.738;2023-06-24T09:05:23;10.35;;;6.85;;
25249;SDS011;13201;51.148;13.738;2023-06-24T09:07:48;8.85;;;6.20;;
25249;SDS011;13201;51.148;13.738;2023-06-24T09:10:30;10.60;;;7.15;;
25249;SDS011;13201;51.148;13.738;2023-06-24T09:13:03;9.52;;;6.47;;
25249;SDS011;13201;51.148;13.738;2023-06-24T09:15:38;10.07;;;6.80;;
25249;SDS011;13201;51.148;13.738;2023-06-24T09:18:04;8.80;;;6.05;;
25249;SDS011;13201;51.148;13.738;2023-06-24T09:20:31;8.18;;;5.88;;
25249;SDS011;13201;51.148;13.738;2023-06-24T09:23:01;9.07;;;5.60;;
25249;SDS011;13201;51.148;13.738;2023-06-24T09:25:27;9.45;;;6.10;;
25249;SDS011;13201;51.148;13.738;2023-06-24T09:27:54;11.52;;;6.63;;
25249;SDS011;13201;51.148;13.738;2023-06-24T09:32:50;7.55;;;5.43;;
25249;SDS011;13201;51.148;13.738;2023-06-24T09:37:52;8.38;;;5.22;;
25249;SDS011;13201;51.148;13.738;2023-06-24T09:40:20;10.45;;;5.55;;
25249;SDS011;13201;51.148;13.738;2023-06-24T09:42:50;7.85;;;5.35;;
25249;SDS011;13201;51.148;13.738;2023-06-24T09:45:23;9.13;;;5.65;;
25249;SDS011;13201;51.148;13.738;2023-06-24T09:47:54;10.85;;;5.45;;
25249;SDS011;13201;51.148;13.738;2023-06-24T09:50:21;13.95;;;6.32;;
25249;SDS011;13201;51.148;13.738;2023-06-24T09:52:47;6.77;;;5.20;;
25249;SDS011;13201;51.148;13.738;2023-06-24T09:55:15;8.50;;;5.55;;
25249;SDS011;13201;51.148;13.738;2023-06-24T09:57:44;11.00;;;5.70;;
25249;SDS011;13201;51.148;13.738;2023-06-24T10:00:11;9.95;;;5.70;;
25249;SDS011;13201;51.148;13.738;2023-06-24T10:02:43;11.20;;;5.53;;
25249;SDS011;13201;51.148;13.738;2023-06-24T10:05:10;10.57;;;5.55;;
25249;SDS011;13201;51.148;13.738;2023-06-24T10:07:40;10.38;;;5.47;;
25249;SDS011;13201;51.148;13.738;2023-06-24T10:10:07;7.45;;;5.05;;
25249;SDS011;13201;51.148;13.738;2023-06-24T10:12:34;9.55;;;5.35;;
25249;SDS011;13201;51.148;13.738;2023-06-24T10:15:01;7.22;;;5.43;;
25249;SDS011;13201;51.148;13.738;2023-06-24T10:19:54;8.48;;;5.07;;
25249;SDS011;13201;51.148;13.738;2023-06-24T10:22:21;7.28;;;5.30;;
25249;SDS011;13201;51.148;13.738;2023-06-24T10:24:54;8.77;;;4.82;;
25249;SDS011;13201;51.148;13.738;2023-06-24T10:27:22;6.60;;;5.00;;
25249;SDS011;13201;51.148;13.738;2023-06-24T10:29:52;8.40;;;5.30;;
25249;SDS011;13201;51.148;13.738;2023-06-24T10:32:19;7.90;;;5.22;;
25249;SDS011;13201;51.148;13.738;2023-06-24T10:34:46;9.85;;;4.63;;
25249;SDS011;13201;51.148;13.738;2023-06-24T10:37:13;5.63;;;4.53;;
25249;SDS011;13201;51.148;13.738;2023-06-24T10:44:52;7.38;;;4.40;;
25249;SDS011;13201;51.148;13.738;2023-06-24T10:47:19;12.07;;;5.00;;
25249;SDS011;13201;51.148;13.738;2023-06-24T10:49:46;6.45;;;4.85;;
25249;SDS011;13201;51.148;13.738;2023-06-24T10:52:12;6.55;;;4.60;;
25249;SDS011;13201;51.148;13.738;2023-06-24T10:54:38;8.80;;;5.43;;
25249;SDS011;13201;51.148;13.738;2023-06-24T10:57:05;7.47;;;5.00;;
25249;SDS011;13201;51.148;13.738;2023-06-24T10:59:35;6.15;;;4.80;;
25249;SDS011;13201;51.148;13.738;2023-06-24T11:02:05;6.13;;;4.70;;
25249;SDS011;13201;51.148;13.738;2023-06-24T11:04:32;8.82;;;5.07;;
25249;SDS011;13201;51.148;13.738;2023-06-24T11:07:01;6.30;;;4.90;;
25249;SDS011;13201;51.148;13.738;2023-06-24T11:09:27;9.55;;;5.10;;
25249;SDS011;13201;51.148;13.738;2023-06-24T11:11:53;9.03;;;5.47;;
25249;SDS011;13201;51.148;13.738;2023-06-24T11:14:19;7.60;;;5.67;;
25249;SDS011;13201;51.148;13.738;2023-06-24T11:16:45;8.38;;;5.20;;
25249;SDS011;13201;51.148;13.738;2023-06-24T11:19:11;8.90;;;5.70;;
25249;SDS011;13201;51.148;13.738;2023-06-24T11:21:36;8.73;;;5.10;;
25249;SDS011;13201;51.148;13.738;2023-06-24T11:24:02;9.38;;;5.80;;
25249;SDS011;13201;51.148;13.738;2023-06-24T11:26:28;7.72;;;5.13;;
25249;SDS011;13201;51.148;13.738;2023-06-24T11:28:54;11.27;;;5.80;;
25249;SDS011;13201;51.148;13.738;2023-06-24T11:31:26;8.40;;;5.03;;
25249;SDS011;13201;51.148;13.738;2023-06-24T11:33:52;6.43;;;4.63;;
25249;SDS011;13201;51.148;13.738;2023-06-24T11:36:22;8.32;;;4.68;;
25249;SDS011;13201;51.148;13.738;2023-06-24T11:38:47;8.00;;;5.00;;
25249;SDS011;13201;51.148;13.738;2023-06-24T11:41:14;7.60;;;5.43;;
25249;SDS011;13201;51.148;13.738;2023-06-24T11:43:44;8.05;;;5.47;;
25249;SDS011;13201;51.148;13.738;2023-06-24T11:46:10;9.35;;;4.88;;
25249;SDS011;13201;51.148;13.738;2023-06-24T11:48:45;8.35;;;4.75;;
25249;SDS011;13201;51.148;13.738;2023-06-24T11:51:13;7.20;;;5.03;;
25249;SDS011;13201;51.148;13.738;2023-06-24T11:53:42;7.45;;;5.00;;
25249;SDS011;13201;51.148;13.738;2023-06-24T11:56:09;6.97;;;5.05;;
25249;SDS011;13201;51.148;13.738;2023-06-24T11:58:35;8.07;;;4.88;;
25249;SDS011;13201;51.148;13.738;2023-06-24T12:01:01;7.05;;;4.97;;
25249;SDS011;13201;51.148;13.738;2023-06-24T12:03:29;8.63;;;4.53;;
25249;SDS011;13201;51.148;13.738;2023-06-24T12:05:57;6.70;;;5.15;;
25249;SDS011;13201;51.148;13.738;2023-06-24T12:08:23;6.70;;;4.97;;
25249;SDS011;13201;51.148;13.738;2023-06-24T12:10:48;9.65;;;5.20;;
25249;SDS011;13201;51.148;13.738;2023-06-24T12:13:14;6.85;;;4.10;;
25249;SDS011;13201;51.148;13.738;2023-06-24T12:15:40;5.17;;;4.23;;
25249;SDS011;13201;51.148;13.738;2023-06-24T12:18:06;7.13;;;4.80;;
25249;SDS011;13201;51.148;13.738;2023-06-24T12:20:32;5.60;;;4.47;;
25249;SDS011;13201;51.148;13.738;2023-06-24T12:22:59;4.90;;;4.05;;
25249;SDS011;13201;51.148;13.738;2023-06-24T12:25:25;6.88;;;4.90;;
25249;SDS011;13201;51.148;13.738;2023-06-24T12:27:51;14.03;;;4.90;;
25249;SDS011;13201;51.148;13.738;2023-06-24T12:30:17;7.03;;;5.00;;
25249;SDS011;13201;51.148;13.738;2023-06-24T12:32:42;5.90;;;4.40;;
25249;SDS011;13201;51.148;13.738;2023-06-24T12:35:08;5.97;;;4.67;;
25249;SDS011;13201;51.148;13.738;2023-06-24T12:37:35;7.75;;;4.80;;
25249;SDS011;13201;51.148;13.738;2023-06-24T12:40:01;6.57;;;4.37;;
25249;SDS011;13201;51.148;13.738;2023-06-24T12:44:53;5.83;;;4.10;;
25249;SDS011;13201;51.148;13.738;2023-06-24T12:47:19;10.83;;;4.33;;
25249;SDS011;13201;51.148;13.738;2023-06-24T12:49:45;7.88;;;4.25;;
25249;SDS011;13201;51.148;13.738;2023-06-24T12:52:12;4.80;;;3.97;;
25249;SDS011;13201;51.148;13.738;2023-06-24T12:54:38;6.88;;;4.15;;
25249;SDS011;13201;51.148;13.738;2023-06-24T12:57:04;6.00;;;4.40;;
25249;SDS011;13201;51.148;13.738;2023-06-24T12:59:30;6.70;;;4.23;;
25249;SDS011;13201;51.148;13.738;2023-06-24T13:01:56;4.33;;;3.90;;
25249;SDS011;13201;51.148;13.738;2023-06-24T13:04:21;9.00;;;4.10;;
25249;SDS011;13201;51.148;13.738;2023-06-24T13:06:49;6.32;;;4.10;;
25249;SDS011;13201;51.148;13.738;2023-06-24T13:09:16;6.53;;;4.40;;
25249;SDS011;13201;51.148;13.738;2023-06-24T13:11:41;4.50;;;3.83;;
25249;SDS011;13201;51.148;13.738;2023-06-24T13:14:08;4.43;;;3.70;;
25249;SDS011;13201;51.148;13.738;2023-06-24T13:16:34;6.72;;;4.10;;
25249;SDS011;13201;51.148;13.738;2023-06-24T13:19:04;6.00;;;3.75;;
25249;SDS011;13201;51.148;13.738;2023-06-24T13:21:30;6.53;;;3.80;;
25249;SDS011;13201;51.148;13.738;2023-06-24T13:23:55;7.37;;;4.20;;
25249;SDS011;13201;51.148;13.738;2023-06-24T13:26:21;3.97;;;3.47;;
25249;SDS011;13201;51.148;13.738;2023-06-24T13:28:47;5.90;;;3.90;;
25249;SDS011;13201;51.148;13.738;2023-06-24T13:31:14;5.90;;;4.40;;
25249;SDS011;13201;51.148;13.738;2023-06-24T13:33:40;4.97;;;3.55;;
25249;SDS011;13201;51.148;13.738;2023-06-24T13:36:07;5.47;;;3.83;;
25249;SDS011;13201;51.148;13.738;2023-06-24T13:38:36;8.13;;;3.97;;
25249;SDS011;13201;51.148;13.738;2023-06-24T13:41:02;5.57;;;3.90;;
25249;SDS011;13201;51.148;13.738;2023-06-24T13:43:28;5.33;;;3.53;;
25249;SDS011;13201;51.148;13.738;2023-06-24T13:45:54;6.03;;;3.60;;
25249;SDS011;13201;51.148;13.738;2023-06-24T13:48:19;4.63;;;3.87;;
25249;SDS011;13201;51.148;13.738;2023-06-24T13:50:45;4.07;;;3.30;;
25249;SDS011;13201;51.148;13.738;2023-06-24T13:53:11;5.27;;;3.30;;
25249;SDS011;13201;51.148;13.738;2023-06-24T13:55:36;6.23;;;3.30;;
25249;SDS011;13201;51.148;13.738;2023-06-24T13:58:02;5.33;;;3.10;;
25249;SDS011;13201;51.148;13.738;2023-06-24T14:00:28;5.50;;;3.43;;
25249;SDS011;13201;51.148;13.738;2023-06-24T14:02:53;5.43;;;3.57;;
25249;SDS011;13201;51.148;13.738;2023-06-24T14:05:20;6.93;;;3.73;;
25249;SDS011;13201;51.148;13.738;2023-06-24T14:07:45;5.32;;;3.30;;
25249;SDS011;13201;51.148;13.738;2023-06-24T14:10:11;6.17;;;3.53;;
25249;SDS011;13201;51.148;13.738;2023-06-24T14:12:37;4.20;;;3.50;;
25249;SDS011;13201;51.148;13.738;2023-06-24T14:15:03;7.47;;;3.70;;
25249;SDS011;13201;51.148;13.738;2023-06-24T14:17:29;4.40;;;3.33;;
25249;SDS011;13201;51.148;13.738;2023-06-24T14:19:55;6.53;;;3.40;;
25249;SDS011;13201;51.148;13.738;2023-06-24T14:22:21;4.43;;;3.50;;
25249;SDS011;13201;51.148;13.738;2023-06-24T14:24:47;6.93;;;4.00;;
25249;SDS011;13201;51.148;13.738;2023-06-24T14:27:13;4.35;;;3.50;;
25249;SDS011;13201;51.148;13.738;2023-06-24T14:29:39;6.80;;;3.73;;
25249;SDS011;13201;51.148;13.738;2023-06-24T14:32:05;8.23;;;3.83;;
25249;SDS011;13201;51.148;13.738;2023-06-24T14:34:31;4.38;;;3.42;;
25249;SDS011;13201;51.148;13.738;2023-06-24T14:36:57;3.83;;;3.40;;
25249;SDS011;13201;51.148;13.738;2023-06-24T14:39:23;5.97;;;3.77;;
25249;SDS011;13201;51.148;13.738;2023-06-24T14:41:49;6.67;;;3.50;;
25249;SDS011;13201;51.148;13.738;2023-06-24T14:44:14;6.87;;;3.20;;
25249;SDS011;13201;51.148;13.738;2023-06-24T14:46:40;5.13;;;3.30;;
25249;SDS011;13201;51.148;13.738;2023-06-24T14:49:06;4.63;;;3.30;;
25249;SDS011;13201;51.148;13.738;2023-06-24T14:51:32;4.25;;;3.15;;
25249;SDS011;13201;51.148;13.738;2023-06-24T14:53:57;5.07;;;3.37;;
25249;SDS011;13201;51.148;13.738;2023-06-24T14:56:23;5.60;;;3.23;;
25249;SDS011;13201;51.148;13.738;2023-06-24T14:58:50;4.13;;;3.50;;
25249;SDS011;13201;51.148;13.738;2023-06-24T15:01:16;4.32;;;3.30;;
25249;SDS011;13201;51.148;13.738;2023-06-24T15:03:41;4.73;;;3.60;;
25249;SDS011;13201;51.148;13.738;2023-06-24T15:06:07;6.03;;;3.07;;
25249;SDS011;13201;51.148;13.738;2023-06-24T15:08:33;4.80;;;3.40;;
25249;SDS011;13201;51.148;13.738;2023-06-24T15:10:58;4.37;;;3.10;;